sensor_id;sensor_type;location;lat;lon;timestamp;temperature;humidity
52899;DHT22;38763;53.096;6.062;2023-05-07T00:02:22;13.60;99.90
52899;DHT22;38763;53.096;6.062;2023-05-07T00:04:48;13.50;99.90
52899;DHT22;38763;53.096;6.062;2023-05-07T00:07:14;13.40;99.90
52899;DHT22;38763;53.096;6.062;2023-05-07T00:09:40;13.50;99.90
52899;DHT22;38763;53.096;6.062;2023-05-07T00:12:06;13.40;99.90
52899;DHT22;38763;53.096;6.062;2023-05-07T00:14:32;13.40;99.90
52899;DHT22;38763;53.096;6.062;2023-05-07T00:16:58;13.40;99.90
52899;DHT22;38763;53.096;6.062;2023-05-07T00:19:24;13.40;99.90
52899;DHT22;38763;53.096;6.062;2023-05-07T00:21:49;13.40;99.90
52899;DHT22;38763;53.096;6.062;2023-05-07T00:24:15;13.40;99.90
52899;DHT22;38763;53.096;6.062;2023-05-07T00:26:41;13.30;99.90
52899;DHT22;38763;53.096;6.062;2023-05-07T00:29:06;13.30;99.90
52899;DHT22;38763;53.096;6.062;2023-05-07T00:31:32;13.30;99.90
52899;DHT22;38763;53.096;6.062;2023-05-07T00:33:58;13.30;99.90
52899;DHT22;38763;53.096;6.062;2023-05-07T00:36:23;13.30;99.90
52899;DHT22;38763;53.096;6.062;2023-05-07T00:38:49;13.30;99.90
52899;DHT22;38763;53.096;6.062;2023-05-07T00:41:15;13.30;99.90
52899;DHT22;38763;53.096;6.062;2023-05-07T00:43:40;13.30;99.90
52899;DHT22;38763;53.096;6.062;2023-05-07T00:46:06;13.20;99.90
52899;DHT22;38763;53.096;6.062;2023-05-07T00:48:32;13.30;99.90
52899;DHT22;38763;53.096;6.062;2023-05-07T00:50:58;13.20;99.90
52899;DHT22;38763;53.096;6.062;2023-05-07T00:53:23;13.30;99.90
52899;DHT22;38763;53.096;6.062;2023-05-07T00:55:50;13.20;99.90
52899;DHT22;38763;53.096;6.062;2023-05-07T00:58:16;13.20;99.90
52899;DHT22;38763;53.096;6.062;2023-05-07T01:00:42;13.20;99.90
52899;DHT22;38763;53.096;6.062;2023-05-07T01:03:08;13.10;99.90
52899;DHT22;38763;53.096;6.062;2023-05-07T01:05:34;13.10;99.90
52899;DHT22;38763;53.096;6.062;2023-05-07T01:08:01;13.10;99.90
52899;DHT22;38763;53.096;6.062;2023-05-07T01:10:28;13.10;99.90
52899;DHT22;38763;53.096;6.062;2023-05-07T01:12:57;13.10;99.90
52899;DHT22;38763;53.096;6.062;2023-05-07T01:15:24;13.10;99.90
52899;DHT22;38763;53.096;6.062;2023-05-07T01:17:49;13.10;99.90
52899;DHT22;38763;53.096;6.062;2023-05-07T01:20:15;13.00;99.90
52899;DHT22;38763;53.096;6.062;2023-05-07T01:22:42;13.10;99.90
52899;DHT22;38763;53.096;6.062;2023-05-07T01:25:08;13.10;99.90
52899;DHT22;38763;53.096;6.062;2023-05-07T01:27:34;13.10;99.90
52899;DHT22;38763;53.096;6.062;2023-05-07T01:30:01;12.90;99.90
52899;DHT22;38763;53.096;6.062;2023-05-07T01:35:18;13.00;99.90
52899;DHT22;38763;53.096;6.062;2023-05-07T01:37:45;12.90;99.90
52899;DHT22;38763;53.096;6.062;2023-05-07T01:40:11;13.00;99.90
52899;DHT22;38763;53.096;6.062;2023-05-07T01:42:37;13.00;99.90
52899;DHT22;38763;53.096;6.062;2023-05-07T01:45:03;12.90;99.90
52899;DHT22;38763;53.096;6.062;2023-05-07T01:47:30;13.00;99.90
52899;DHT22;38763;53.096;6.062;2023-05-07T01:49:56;12.90;99.90
52899;DHT22;38763;53.096;6.062;2023-05-07T01:52:22;12.90;99.90
52899;DHT22;38763;53.096;6.062;2023-05-07T01:54:47;12.90;99.90
52899;DHT22;38763;53.096;6.062;2023-05-07T01:57:13;12.90;99.90
52899;DHT22;38763;53.096;6.062;2023-05-07T01:59:39;12.80;99.90
52899;DHT22;38763;53.096;6.062;2023-05-07T02:02:04;12.80;99.90
52899;DHT22;38763;53.096;6.062;2023-05-07T02:04:30;12.80;99.90
52899;DHT22;38763;53.096;6.062;2023-05-07T02:06:55;12.80;99.90
52899;DHT22;38763;53.096;6.062;2023-05-07T02:09:21;12.80;99.90
52899;DHT22;38763;53.096;6.062;2023-05-07T02:11:48;12.80;99.90
52899;DHT22;38763;53.096;6.062;2023-05-07T02:14:13;12.80;99.90
52899;DHT22;38763;53.096;6.062;2023-05-07T02:16:39;12.80;99.90
52899;DHT22;38763;53.096;6.062;2023-05-07T02:19:05;12.70;99.90
52899;DHT22;38763;53.096;6.062;2023-05-07T02:21:30;12.70;99.90
52899;DHT22;38763;53.096;6.062;2023-05-07T02:23:56;12.70;99.90
52899;DHT22;38763;53.096;6.062;2023-05-07T02:26:22;12.70;99.90
52899;DHT22;38763;53.096;6.062;2023-05-07T02:28:47;12.60;99.90
52899;DHT22;38763;53.096;6.062;2023-05-07T02:31:13;12.60;99.90
52899;DHT22;38763;53.096;6.062;2023-05-07T02:33:39;12.60;99.90
52899;DHT22;38763;53.096;6.062;2023-05-07T02:36:08;12.60;99.90
52899;DHT22;38763;53.096;6.062;2023-05-07T02:38:34;12.50;99.90
52899;DHT22;38763;53.096;6.062;2023-05-07T02:41:00;12.50;99.90
52899;DHT22;38763;53.096;6.062;2023-05-07T02:43:26;12.50;99.90
52899;DHT22;38763;53.096;6.062;2023-05-07T02:46:05;12.40;99.90
52899;DHT22;38763;53.096;6.062;2023-05-07T02:48:31;12.40;99.90
52899;DHT22;38763;53.096;6.062;2023-05-07T02:50:58;12.40;99.90
52899;DHT22;38763;53.096;6.062;2023-05-07T02:53:24;12.50;99.90
52899;DHT22;38763;53.096;6.062;2023-05-07T02:55:55;12.40;99.90
52899;DHT22;38763;53.096;6.062;2023-05-07T02:58:21;12.40;99.90
52899;DHT22;38763;53.096;6.062;2023-05-07T03:00:47;12.40;99.90
52899;DHT22;38763;53.096;6.062;2023-05-07T03:03:13;12.30;99.90
52899;DHT22;38763;53.096;6.062;2023-05-07T03:05:39;12.30;99.90
52899;DHT22;38763;53.096;6.062;2023-05-07T03:08:04;12.30;99.90
52899;DHT22;38763;53.096;6.062;2023-05-07T03:10:30;12.20;99.90
52899;DHT22;38763;53.096;6.062;2023-05-07T03:12:56;12.30;99.90
52899;DHT22;38763;53.096;6.062;2023-05-07T03:15:22;12.20;99.90
52899;DHT22;38763;53.096;6.062;2023-05-07T03:17:48;12.10;99.90
52899;DHT22;38763;53.096;6.062;2023-05-07T03:20:14;12.20;99.90
52899;DHT22;38763;53.096;6.062;2023-05-07T03:22:40;12.10;99.90
52899;DHT22;38763;53.096;6.062;2023-05-07T03:25:07;12.10;99.90
52899;DHT22;38763;53.096;6.062;2023-05-07T03:27:33;12.10;99.90
52899;DHT22;38763;53.096;6.062;2023-05-07T03:29:59;12.10;99.90
52899;DHT22;38763;53.096;6.062;2023-05-07T03:32:24;12.00;99.90
52899;DHT22;38763;53.096;6.062;2023-05-07T03:34:50;12.00;99.90
52899;DHT22;38763;53.096;6.062;2023-05-07T03:37:16;11.90;99.90
52899;DHT22;38763;53.096;6.062;2023-05-07T03:39:41;12.00;99.90
52899;DHT22;38763;53.096;6.062;2023-05-07T03:42:07;12.00;99.90
52899;DHT22;38763;53.096;6.062;2023-05-07T03:44:33;11.90;99.90
52899;DHT22;38763;53.096;6.062;2023-05-07T03:46:58;11.90;99.90
52899;DHT22;38763;53.096;6.062;2023-05-07T03:49:24;11.90;99.90
52899;DHT22;38763;53.096;6.062;2023-05-07T03:51:49;11.90;99.90
52899;DHT22;38763;53.096;6.062;2023-05-07T03:54:15;11.90;99.90
52899;DHT22;38763;53.096;6.062;2023-05-07T03:56:41;11.90;99.90
52899;DHT22;38763;53.096;6.062;2023-05-07T03:59:06;11.80;99.90
52899;DHT22;38763;53.096;6.062;2023-05-07T04:01:32;11.80;99.90
52899;DHT22;38763;53.096;6.062;2023-05-07T04:03:57;11.80;99.90
52899;DHT22;38763;53.096;6.062;2023-05-07T04:06:23;11.80;99.90
52899;DHT22;38763;53.096;6.062;2023-05-07T04:08:49;11.80;99.90
52899;DHT22;38763;53.096;6.062;2023-05-07T04:11:15;11.80;99.90
52899;DHT22;38763;53.096;6.062;2023-05-07T04:13:41;11.80;99.90
52899;DHT22;38763;53.096;6.062;2023-05-07T04:16:07;11.80;99.90
52899;DHT22;38763;53.096;6.062;2023-05-07T04:18:33;11.70;99.90
52899;DHT22;38763;53.096;6.062;2023-05-07T04:20:59;11.70;99.90
52899;DHT22;38763;53.096;6.062;2023-05-07T04:23:25;11.70;99.90
52899;DHT22;38763;53.096;6.062;2023-05-07T04:25:50;11.70;99.90
52899;DHT22;38763;53.096;6.062;2023-05-07T04:28:16;11.70;99.90
52899;DHT22;38763;53.096;6.062;2023-05-07T04:30:41;11.70;99.90
52899;DHT22;38763;53.096;6.062;2023-05-07T04:33:07;11.70;99.90
52899;DHT22;38763;53.096;6.062;2023-05-07T04:35:33;11.60;99.90
52899;DHT22;38763;53.096;6.062;2023-05-07T04:37:58;11.60;99.90
52899;DHT22;38763;53.096;6.062;2023-05-07T04:40:24;11.60;99.90
52899;DHT22;38763;53.096;6.062;2023-05-07T04:42:50;11.60;99.90
52899;DHT22;38763;53.096;6.062;2023-05-07T04:45:16;11.60;99.90
52899;DHT22;38763;53.096;6.062;2023-05-07T04:47:42;11.60;99.90
52899;DHT22;38763;53.096;6.062;2023-05-07T04:50:08;11.60;99.90
52899;DHT22;38763;53.096;6.062;2023-05-07T04:52:34;11.60;99.90
52899;DHT22;38763;53.096;6.062;2023-05-07T04:55:00;11.60;99.90
52899;DHT22;38763;53.096;6.062;2023-05-07T04:57:26;11.60;99.90
52899;DHT22;38763;53.096;6.062;2023-05-07T04:59:52;11.60;99.90
52899;DHT22;38763;53.096;6.062;2023-05-07T05:02:18;11.60;99.90
52899;DHT22;38763;53.096;6.062;2023-05-07T05:04:44;11.60;99.90
52899;DHT22;38763;53.096;6.062;2023-05-07T05:07:10;11.60;99.90
52899;DHT22;38763;53.096;6.062;2023-05-07T05:09:35;11.60;99.90
52899;DHT22;38763;53.096;6.062;2023-05-07T05:12:01;11.60;99.90
52899;DHT22;38763;53.096;6.062;2023-05-07T05:14:27;11.60;99.90
52899;DHT22;38763;53.096;6.062;2023-05-07T05:16:52;11.60;99.90
52899;DHT22;38763;53.096;6.062;2023-05-07T05:19:18;11.60;99.90
52899;DHT22;38763;53.096;6.062;2023-05-07T05:21:43;11.70;99.90
52899;DHT22;38763;53.096;6.062;2023-05-07T05:24:09;11.70;99.90
52899;DHT22;38763;53.096;6.062;2023-05-07T05:26:35;11.60;99.90
52899;DHT22;38763;53.096;6.062;2023-05-07T05:29:01;11.70;99.90
52899;DHT22;38763;53.096;6.062;2023-05-07T05:31:26;11.60;99.90
52899;DHT22;38763;53.096;6.062;2023-05-07T05:33:52;11.70;99.90
52899;DHT22;38763;53.096;6.062;2023-05-07T05:36:17;11.80;99.90
52899;DHT22;38763;53.096;6.062;2023-05-07T05:38:43;11.80;99.90
52899;DHT22;38763;53.096;6.062;2023-05-07T05:41:09;11.60;99.90
52899;DHT22;38763;53.096;6.062;2023-05-07T05:43:35;11.80;99.90
52899;DHT22;38763;53.096;6.062;2023-05-07T05:46:01;11.70;99.90
52899;DHT22;38763;53.096;6.062;2023-05-07T05:48:28;11.80;99.90
52899;DHT22;38763;53.096;6.062;2023-05-07T05:50:54;11.80;99.90
52899;DHT22;38763;53.096;6.062;2023-05-07T05:53:19;11.80;99.90
52899;DHT22;38763;53.096;6.062;2023-05-07T05:55:45;11.90;99.90
52899;DHT22;38763;53.096;6.062;2023-05-07T05:58:11;11.80;99.90
52899;DHT22;38763;53.096;6.062;2023-05-07T06:00:37;11.90;99.90
52899;DHT22;38763;53.096;6.062;2023-05-07T06:03:03;11.80;99.90
52899;DHT22;38763;53.096;6.062;2023-05-07T06:05:28;11.80;99.90
52899;DHT22;38763;53.096;6.062;2023-05-07T06:07:54;11.90;99.90
52899;DHT22;38763;53.096;6.062;2023-05-07T06:10:20;11.90;99.90
52899;DHT22;38763;53.096;6.062;2023-05-07T06:12:45;12.00;99.90
52899;DHT22;38763;53.096;6.062;2023-05-07T06:15:11;12.00;99.90
52899;DHT22;38763;53.096;6.062;2023-05-07T06:17:37;12.00;99.90
52899;DHT22;38763;53.096;6.062;2023-05-07T06:20:03;12.10;99.90
52899;DHT22;38763;53.096;6.062;2023-05-07T06:22:28;12.10;99.90
52899;DHT22;38763;53.096;6.062;2023-05-07T06:24:54;12.10;99.90
52899;DHT22;38763;53.096;6.062;2023-05-07T06:27:20;12.20;99.90
52899;DHT22;38763;53.096;6.062;2023-05-07T06:29:48;12.30;99.90
52899;DHT22;38763;53.096;6.062;2023-05-07T06:32:14;12.30;99.90
52899;DHT22;38763;53.096;6.062;2023-05-07T06:34:40;12.30;99.90
52899;DHT22;38763;53.096;6.062;2023-05-07T06:37:06;12.40;99.90
52899;DHT22;38763;53.096;6.062;2023-05-07T06:39:32;12.40;99.90
52899;DHT22;38763;53.096;6.062;2023-05-07T06:41:59;12.50;99.90
52899;DHT22;38763;53.096;6.062;2023-05-07T06:44:25;12.40;99.90
52899;DHT22;38763;53.096;6.062;2023-05-07T06:46:50;12.50;99.90
52899;DHT22;38763;53.096;6.062;2023-05-07T06:49:16;12.50;99.90
52899;DHT22;38763;53.096;6.062;2023-05-07T06:51:42;12.60;99.90
52899;DHT22;38763;53.096;6.062;2023-05-07T06:54:07;12.70;99.90
52899;DHT22;38763;53.096;6.062;2023-05-07T06:56:33;12.80;99.90
52899;DHT22;38763;53.096;6.062;2023-05-07T06:59:00;12.80;99.90
52899;DHT22;38763;53.096;6.062;2023-05-07T07:01:26;12.90;99.90
52899;DHT22;38763;53.096;6.062;2023-05-07T07:03:51;13.00;99.90
52899;DHT22;38763;53.096;6.062;2023-05-07T07:06:17;12.90;99.90
52899;DHT22;38763;53.096;6.062;2023-05-07T07:08:43;12.90;99.90
52899;DHT22;38763;53.096;6.062;2023-05-07T07:11:10;12.80;99.90
52899;DHT22;38763;53.096;6.062;2023-05-07T07:13:36;12.90;99.90
52899;DHT22;38763;53.096;6.062;2023-05-07T07:16:02;12.90;99.90
52899;DHT22;38763;53.096;6.062;2023-05-07T07:18:28;12.90;99.90
52899;DHT22;38763;53.096;6.062;2023-05-07T07:20:53;12.90;99.90
52899;DHT22;38763;53.096;6.062;2023-05-07T07:23:19;13.00;99.90
52899;DHT22;38763;53.096;6.062;2023-05-07T07:25:45;12.90;99.90
52899;DHT22;38763;53.096;6.062;2023-05-07T07:28:11;13.00;99.90
52899;DHT22;38763;53.096;6.062;2023-05-07T07:30:37;13.10;99.90
52899;DHT22;38763;53.096;6.062;2023-05-07T07:33:02;13.30;99.90
52899;DHT22;38763;53.096;6.062;2023-05-07T07:35:32;13.40;99.90
52899;DHT22;38763;53.096;6.062;2023-05-07T07:37:58;13.40;99.90
52899;DHT22;38763;53.096;6.062;2023-05-07T07:40:24;13.30;99.90
52899;DHT22;38763;53.096;6.062;2023-05-07T07:42:53;13.40;99.90
52899;DHT22;38763;53.096;6.062;2023-05-07T07:45:19;13.40;99.90
52899;DHT22;38763;53.096;6.062;2023-05-07T07:47:45;13.40;99.90
52899;DHT22;38763;53.096;6.062;2023-05-07T07:50:10;13.50;99.90
52899;DHT22;38763;53.096;6.062;2023-05-07T07:52:36;13.60;99.90
52899;DHT22;38763;53.096;6.062;2023-05-07T07:55:02;13.70;99.90
52899;DHT22;38763;53.096;6.062;2023-05-07T07:57:28;13.80;99.90
52899;DHT22;38763;53.096;6.062;2023-05-07T07:59:53;13.90;99.90
52899;DHT22;38763;53.096;6.062;2023-05-07T08:02:19;14.10;99.90
52899;DHT22;38763;53.096;6.062;2023-05-07T08:04:45;14.20;99.90
52899;DHT22;38763;53.096;6.062;2023-05-07T08:07:11;14.30;99.90
52899;DHT22;38763;53.096;6.062;2023-05-07T08:09:38;14.30;99.90
52899;DHT22;38763;53.096;6.062;2023-05-07T08:12:04;14.40;99.90
52899;DHT22;38763;53.096;6.062;2023-05-07T08:14:30;14.60;99.90
52899;DHT22;38763;53.096;6.062;2023-05-07T08:16:56;14.90;99.90
52899;DHT22;38763;53.096;6.062;2023-05-07T08:19:22;15.20;99.90
52899;DHT22;38763;53.096;6.062;2023-05-07T08:21:48;15.30;99.90
52899;DHT22;38763;53.096;6.062;2023-05-07T08:24:14;15.20;99.90
52899;DHT22;38763;53.096;6.062;2023-05-07T08:26:40;15.10;99.90
52899;DHT22;38763;53.096;6.062;2023-05-07T08:29:06;15.40;99.90
52899;DHT22;38763;53.096;6.062;2023-05-07T08:31:32;15.40;99.90
52899;DHT22;38763;53.096;6.062;2023-05-07T08:33:58;15.40;99.90
52899;DHT22;38763;53.096;6.062;2023-05-07T08:36:24;15.40;99.90
52899;DHT22;38763;53.096;6.062;2023-05-07T08:38:50;15.20;99.90
52899;DHT22;38763;53.096;6.062;2023-05-07T08:41:15;15.20;99.90
52899;DHT22;38763;53.096;6.062;2023-05-07T08:43:41;15.10;99.90
52899;DHT22;38763;53.096;6.062;2023-05-07T08:46:10;15.10;99.90
52899;DHT22;38763;53.096;6.062;2023-05-07T08:48:37;15.10;99.90
52899;DHT22;38763;53.096;6.062;2023-05-07T08:51:02;15.10;99.90
52899;DHT22;38763;53.096;6.062;2023-05-07T08:53:28;15.10;99.90
52899;DHT22;38763;53.096;6.062;2023-05-07T08:55:54;15.10;99.90
52899;DHT22;38763;53.096;6.062;2023-05-07T08:58:20;15.30;99.90
52899;DHT22;38763;53.096;6.062;2023-05-07T09:00:47;15.30;99.90
52899;DHT22;38763;53.096;6.062;2023-05-07T09:03:12;15.40;99.90
52899;DHT22;38763;53.096;6.062;2023-05-07T09:05:39;15.70;99.90
52899;DHT22;38763;53.096;6.062;2023-05-07T09:08:07;16.10;99.90
52899;DHT22;38763;53.096;6.062;2023-05-07T09:10:33;16.20;99.90
52899;DHT22;38763;53.096;6.062;2023-05-07T09:12:59;16.20;99.90
52899;DHT22;38763;53.096;6.062;2023-05-07T09:15:26;16.30;99.90
52899;DHT22;38763;53.096;6.062;2023-05-07T09:17:53;16.60;99.90
52899;DHT22;38763;53.096;6.062;2023-05-07T09:20:19;16.60;99.90
52899;DHT22;38763;53.096;6.062;2023-05-07T09:22:44;16.60;99.90
52899;DHT22;38763;53.096;6.062;2023-05-07T09:25:10;16.50;99.90
52899;DHT22;38763;53.096;6.062;2023-05-07T09:27:36;16.50;99.90
52899;DHT22;38763;53.096;6.062;2023-05-07T09:30:06;16.60;99.90
52899;DHT22;38763;53.096;6.062;2023-05-07T09:32:35;17.00;99.90
52899;DHT22;38763;53.096;6.062;2023-05-07T09:35:01;17.20;99.90
52899;DHT22;38763;53.096;6.062;2023-05-07T09:37:31;17.20;99.90
52899;DHT22;38763;53.096;6.062;2023-05-07T09:39:57;17.10;99.90
52899;DHT22;38763;53.096;6.062;2023-05-07T09:42:24;17.40;99.90
52899;DHT22;38763;53.096;6.062;2023-05-07T09:44:52;17.50;99.90
52899;DHT22;38763;53.096;6.062;2023-05-07T09:47:19;17.60;99.90
52899;DHT22;38763;53.096;6.062;2023-05-07T09:49:47;17.70;99.90
52899;DHT22;38763;53.096;6.062;2023-05-07T09:52:14;17.70;99.90
52899;DHT22;38763;53.096;6.062;2023-05-07T09:54:40;17.70;99.90
52899;DHT22;38763;53.096;6.062;2023-05-07T09:57:10;17.70;99.90
52899;DHT22;38763;53.096;6.062;2023-05-07T09:59:37;17.90;99.90
52899;DHT22;38763;53.096;6.062;2023-05-07T10:02:04;17.70;99.90
52899;DHT22;38763;53.096;6.062;2023-05-07T10:04:31;17.80;99.90
52899;DHT22;38763;53.096;6.062;2023-05-07T10:06:57;17.80;99.90
52899;DHT22;38763;53.096;6.062;2023-05-07T10:09:25;18.00;99.90
52899;DHT22;38763;53.096;6.062;2023-05-07T10:11:51;17.90;99.90
52899;DHT22;38763;53.096;6.062;2023-05-07T10:14:17;17.80;99.90
52899;DHT22;38763;53.096;6.062;2023-05-07T10:16:43;17.70;99.90
52899;DHT22;38763;53.096;6.062;2023-05-07T10:19:10;17.80;99.90
52899;DHT22;38763;53.096;6.062;2023-05-07T10:21:51;17.90;99.90
52899;DHT22;38763;53.096;6.062;2023-05-07T10:24:26;18.20;99.90
52899;DHT22;38763;53.096;6.062;2023-05-07T10:26:55;18.40;99.90
52899;DHT22;38763;53.096;6.062;2023-05-07T10:29:32;18.60;99.90
52899;DHT22;38763;53.096;6.062;2023-05-07T10:32:33;18.80;99.90
52899;DHT22;38763;53.096;6.062;2023-05-07T10:35:03;18.80;99.90
52899;DHT22;38763;53.096;6.062;2023-05-07T10:37:30;19.00;99.90
52899;DHT22;38763;53.096;6.062;2023-05-07T10:39:56;19.00;99.90
52899;DHT22;38763;53.096;6.062;2023-05-07T10:42:23;19.10;99.90
52899;DHT22;38763;53.096;6.062;2023-05-07T10:44:49;19.20;99.90
52899;DHT22;38763;53.096;6.062;2023-05-07T10:47:16;19.10;99.90
52899;DHT22;38763;53.096;6.062;2023-05-07T10:52:20;19.40;99.90
52899;DHT22;38763;53.096;6.062;2023-05-07T10:54:46;19.40;99.90
52899;DHT22;38763;53.096;6.062;2023-05-07T10:57:38;19.30;99.90
52899;DHT22;38763;53.096;6.062;2023-05-07T11:05:26;19.50;99.90
52899;DHT22;38763;53.096;6.062;2023-05-07T11:07:56;19.20;99.90
52899;DHT22;38763;53.096;6.062;2023-05-07T11:10:22;18.90;99.90
52899;DHT22;38763;53.096;6.062;2023-05-07T11:12:52;18.70;99.90
52899;DHT22;38763;53.096;6.062;2023-05-07T11:15:38;18.70;99.90
52899;DHT22;38763;53.096;6.062;2023-05-07T11:18:03;18.60;99.90
52899;DHT22;38763;53.096;6.062;2023-05-07T11:26:01;18.40;99.90
52899;DHT22;38763;53.096;6.062;2023-05-07T11:28:28;18.40;99.90
52899;DHT22;38763;53.096;6.062;2023-05-07T11:30:54;18.40;99.90
52899;DHT22;38763;53.096;6.062;2023-05-07T11:33:22;18.50;99.90
52899;DHT22;38763;53.096;6.062;2023-05-07T11:35:48;18.50;99.90
52899;DHT22;38763;53.096;6.062;2023-05-07T11:38:14;18.50;99.90
52899;DHT22;38763;53.096;6.062;2023-05-07T11:40:53;18.50;99.90
52899;DHT22;38763;53.096;6.062;2023-05-07T11:43:19;18.60;99.90
52899;DHT22;38763;53.096;6.062;2023-05-07T11:45:48;18.50;99.90
52899;DHT22;38763;53.096;6.062;2023-05-07T11:48:15;18.50;99.90
52899;DHT22;38763;53.096;6.062;2023-05-07T11:51:00;18.50;99.90
52899;DHT22;38763;53.096;6.062;2023-05-07T11:53:28;18.60;99.90
52899;DHT22;38763;53.096;6.062;2023-05-07T11:56:00;18.70;99.90
52899;DHT22;38763;53.096;6.062;2023-05-07T11:58:26;18.70;99.90
52899;DHT22;38763;53.096;6.062;2023-05-07T12:00:54;18.70;99.90
52899;DHT22;38763;53.096;6.062;2023-05-07T12:03:20;18.80;99.90
52899;DHT22;38763;53.096;6.062;2023-05-07T12:05:47;18.80;99.90
52899;DHT22;38763;53.096;6.062;2023-05-07T12:08:16;18.90;99.90
52899;DHT22;38763;53.096;6.062;2023-05-07T12:10:43;18.90;99.90
52899;DHT22;38763;53.096;6.062;2023-05-07T12:13:16;19.00;99.90
52899;DHT22;38763;53.096;6.062;2023-05-07T12:15:44;19.20;99.90
52899;DHT22;38763;53.096;6.062;2023-05-07T12:18:11;19.20;99.90
52899;DHT22;38763;53.096;6.062;2023-05-07T12:20:37;19.40;99.90
52899;DHT22;38763;53.096;6.062;2023-05-07T12:23:03;19.50;99.90
52899;DHT22;38763;53.096;6.062;2023-05-07T12:25:34;19.60;99.90
52899;DHT22;38763;53.096;6.062;2023-05-07T12:28:02;19.60;99.90
52899;DHT22;38763;53.096;6.062;2023-05-07T12:30:27;19.50;99.90
52899;DHT22;38763;53.096;6.062;2023-05-07T12:32:54;19.60;99.90
52899;DHT22;38763;53.096;6.062;2023-05-07T12:35:30;19.60;99.90
52899;DHT22;38763;53.096;6.062;2023-05-07T12:37:57;19.50;99.90
52899;DHT22;38763;53.096;6.062;2023-05-07T12:40:41;19.40;99.90
52899;DHT22;38763;53.096;6.062;2023-05-07T12:43:07;19.40;99.90
52899;DHT22;38763;53.096;6.062;2023-05-07T12:45:40;19.40;99.90
52899;DHT22;38763;53.096;6.062;2023-05-07T12:48:06;19.40;99.90
52899;DHT22;38763;53.096;6.062;2023-05-07T12:50:32;19.40;99.90
52899;DHT22;38763;53.096;6.062;2023-05-07T12:52:58;19.40;99.90
52899;DHT22;38763;53.096;6.062;2023-05-07T12:55:24;19.30;99.90
52899;DHT22;38763;53.096;6.062;2023-05-07T12:57:50;19.30;99.90
52899;DHT22;38763;53.096;6.062;2023-05-07T13:00:17;19.30;99.90
52899;DHT22;38763;53.096;6.062;2023-05-07T13:02:43;19.30;99.90
52899;DHT22;38763;53.096;6.062;2023-05-07T13:05:12;19.30;99.90
52899;DHT22;38763;53.096;6.062;2023-05-07T13:07:39;19.30;99.90
52899;DHT22;38763;53.096;6.062;2023-05-07T13:10:06;19.40;99.90
52899;DHT22;38763;53.096;6.062;2023-05-07T13:12:32;19.40;99.90
52899;DHT22;38763;53.096;6.062;2023-05-07T13:14:58;19.40;99.90
52899;DHT22;38763;53.096;6.062;2023-05-07T13:17:24;19.30;99.90
52899;DHT22;38763;53.096;6.062;2023-05-07T13:19:50;19.30;99.90
52899;DHT22;38763;53.096;6.062;2023-05-07T13:22:15;19.40;99.90
52899;DHT22;38763;53.096;6.062;2023-05-07T13:24:41;19.40;99.90
52899;DHT22;38763;53.096;6.062;2023-05-07T13:27:08;19.30;99.90
52899;DHT22;38763;53.096;6.062;2023-05-07T13:29:34;19.50;99.90
52899;DHT22;38763;53.096;6.062;2023-05-07T13:32:00;19.50;99.90
52899;DHT22;38763;53.096;6.062;2023-05-07T13:34:26;19.50;99.90
52899;DHT22;38763;53.096;6.062;2023-05-07T13:36:51;19.60;99.90
52899;DHT22;38763;53.096;6.062;2023-05-07T13:39:17;19.60;99.90
52899;DHT22;38763;53.096;6.062;2023-05-07T13:41:43;19.60;99.90
52899;DHT22;38763;53.096;6.062;2023-05-07T13:44:08;19.50;99.90
52899;DHT22;38763;53.096;6.062;2023-05-07T13:46:34;19.60;99.90
52899;DHT22;38763;53.096;6.062;2023-05-07T13:49:00;19.60;99.90
52899;DHT22;38763;53.096;6.062;2023-05-07T13:51:25;19.70;99.90
52899;DHT22;38763;53.096;6.062;2023-05-07T13:53:51;19.60;99.90
52899;DHT22;38763;53.096;6.062;2023-05-07T13:56:17;19.60;99.90
52899;DHT22;38763;53.096;6.062;2023-05-07T13:58:43;19.60;99.90
52899;DHT22;38763;53.096;6.062;2023-05-07T14:01:09;19.60;99.90
52899;DHT22;38763;53.096;6.062;2023-05-07T14:03:35;19.60;99.90
52899;DHT22;38763;53.096;6.062;2023-05-07T14:06:05;19.50;99.90
52899;DHT22;38763;53.096;6.062;2023-05-07T14:08:30;19.50;99.90
52899;DHT22;38763;53.096;6.062;2023-05-07T14:10:57;19.50;99.90
52899;DHT22;38763;53.096;6.062;2023-05-07T14:13:23;19.50;99.90
52899;DHT22;38763;53.096;6.062;2023-05-07T14:15:49;19.50;99.90
52899;DHT22;38763;53.096;6.062;2023-05-07T14:18:15;19.60;99.90
52899;DHT22;38763;53.096;6.062;2023-05-07T14:20:41;19.70;99.90
52899;DHT22;38763;53.096;6.062;2023-05-07T14:23:12;19.70;99.90
52899;DHT22;38763;53.096;6.062;2023-05-07T14:25:37;19.80;99.90
52899;DHT22;38763;53.096;6.062;2023-05-07T14:28:03;19.80;99.90
52899;DHT22;38763;53.096;6.062;2023-05-07T14:30:29;19.80;99.90
52899;DHT22;38763;53.096;6.062;2023-05-07T14:32:54;19.80;99.90
52899;DHT22;38763;53.096;6.062;2023-05-07T14:35:20;19.80;99.90
52899;DHT22;38763;53.096;6.062;2023-05-07T14:37:46;19.90;99.90
52899;DHT22;38763;53.096;6.062;2023-05-07T14:40:11;19.90;99.90
52899;DHT22;38763;53.096;6.062;2023-05-07T14:42:37;19.60;99.90
52899;DHT22;38763;53.096;6.062;2023-05-07T14:45:03;19.80;99.90
52899;DHT22;38763;53.096;6.062;2023-05-07T14:47:29;19.70;99.90
52899;DHT22;38763;53.096;6.062;2023-05-07T14:49:54;19.80;99.90
52899;DHT22;38763;53.096;6.062;2023-05-07T14:52:21;19.80;99.90
52899;DHT22;38763;53.096;6.062;2023-05-07T14:54:46;19.80;99.90
52899;DHT22;38763;53.096;6.062;2023-05-07T14:57:14;19.80;99.90
52899;DHT22;38763;53.096;6.062;2023-05-07T14:59:41;19.70;99.90
52899;DHT22;38763;53.096;6.062;2023-05-07T15:02:09;19.70;99.90
52899;DHT22;38763;53.096;6.062;2023-05-07T15:04:35;19.60;99.90
52899;DHT22;38763;53.096;6.062;2023-05-07T15:07:00;19.70;99.90
52899;DHT22;38763;53.096;6.062;2023-05-07T15:09:26;19.70;99.90
52899;DHT22;38763;53.096;6.062;2023-05-07T15:11:52;19.80;99.90
52899;DHT22;38763;53.096;6.062;2023-05-07T15:14:18;19.90;99.90
52899;DHT22;38763;53.096;6.062;2023-05-07T15:16:43;20.00;99.90
52899;DHT22;38763;53.096;6.062;2023-05-07T15:19:10;20.10;99.90
52899;DHT22;38763;53.096;6.062;2023-05-07T15:21:36;20.10;99.90
52899;DHT22;38763;53.096;6.062;2023-05-07T15:24:02;20.10;99.90
52899;DHT22;38763;53.096;6.062;2023-05-07T15:26:28;20.00;99.90
52899;DHT22;38763;53.096;6.062;2023-05-07T15:28:54;20.00;99.90
52899;DHT22;38763;53.096;6.062;2023-05-07T15:31:25;20.00;99.90
52899;DHT22;38763;53.096;6.062;2023-05-07T15:33:51;19.80;99.90
52899;DHT22;38763;53.096;6.062;2023-05-07T15:36:20;19.80;99.90
52899;DHT22;38763;53.096;6.062;2023-05-07T15:38:46;19.70;99.90
52899;DHT22;38763;53.096;6.062;2023-05-07T15:41:11;19.70;99.90
52899;DHT22;38763;53.096;6.062;2023-05-07T15:43:44;19.60;99.90